sensor_id;sensor_type;location;lat;lon;timestamp;P1;durP1;ratioP1;P2;durP2;ratioP2
41925;SDS011;27615;51.826;5.692;2022-12-08T00:01:37;3.92;;;3.30;;
41925;SDS011;27615;51.826;5.692;2022-12-08T00:04:03;4.88;;;3.65;;
41925;SDS011;27615;51.826;5.692;2022-12-08T00:06:34;6.53;;;3.85;;
41925;SDS011;27615;51.826;5.692;2022-12-08T00:11:56;5.15;;;3.55;;
41925;SDS011;27615;51.826;5.692;2022-12-08T00:14:41;4.88;;;3.45;;
41925;SDS011;27615;51.826;5.692;2022-12-08T00:17:09;6.63;;;3.78;;
41925;SDS011;27615;51.826;5.692;2022-12-08T00:19:36;5.70;;;3.63;;
41925;SDS011;27615;51.826;5.692;2022-12-08T00:22:03;6.85;;;4.40;;
41925;SDS011;27615;51.826;5.692;2022-12-08T00:24:30;6.00;;;3.90;;
41925;SDS011;27615;51.826;5.692;2022-12-08T00:26:59;6.72;;;3.67;;
41925;SDS011;27615;51.826;5.692;2022-12-08T00:29:24;5.45;;;3.88;;
41925;SDS011;27615;51.826;5.692;2022-12-08T00:31:50;6.60;;;4.43;;
41925;SDS011;27615;51.826;5.692;2022-12-08T00:34:16;8.85;;;4.43;;
41925;SDS011;27615;51.826;5.692;2022-12-08T00:36:42;6.88;;;4.60;;
41925;SDS011;27615;51.826;5.692;2022-12-08T00:39:08;7.55;;;4.78;;
41925;SDS011;27615;51.826;5.692;2022-12-08T00:41:34;8.43;;;5.75;;
41925;SDS011;27615;51.826;5.692;2022-12-08T00:44:18;9.85;;;7.15;;
41925;SDS011;27615;51.826;5.692;2022-12-08T00:46:44;8.18;;;6.40;;
41925;SDS011;27615;51.826;5.692;2022-12-08T00:49:11;8.52;;;5.95;;
41925;SDS011;27615;51.826;5.692;2022-12-08T00:51:37;8.40;;;6.32;;
41925;SDS011;27615;51.826;5.692;2022-12-08T00:54:03;8.20;;;7.38;;
41925;SDS011;27615;51.826;5.692;2022-12-08T00:56:29;9.93;;;7.47;;
41925;SDS011;27615;51.826;5.692;2022-12-08T00:58:55;11.85;;;8.02;;
41925;SDS011;27615;51.826;5.692;2022-12-08T01:01:20;11.90;;;8.80;;
41925;SDS011;27615;51.826;5.692;2022-12-08T01:03:46;10.48;;;8.10;;
41925;SDS011;27615;51.826;5.692;2022-12-08T01:06:12;11.80;;;9.52;;
41925;SDS011;27615;51.826;5.692;2022-12-08T01:08:38;12.27;;;9.65;;
41925;SDS011;27615;51.826;5.692;2022-12-08T01:11:04;15.20;;;10.23;;
41925;SDS011;27615;51.826;5.692;2022-12-08T01:13:31;18.98;;;11.60;;
41925;SDS011;27615;51.826;5.692;2022-12-08T01:15:57;14.23;;;10.50;;
41925;SDS011;27615;51.826;5.692;2022-12-08T01:18:23;16.85;;;12.35;;
41925;SDS011;27615;51.826;5.692;2022-12-08T01:20:48;15.48;;;12.65;;
41925;SDS011;27615;51.826;5.692;2022-12-08T01:23:14;15.60;;;12.27;;
41925;SDS011;27615;51.826;5.692;2022-12-08T01:25:39;14.88;;;11.80;;
41925;SDS011;27615;51.826;5.692;2022-12-08T01:28:05;17.80;;;12.40;;
41925;SDS011;27615;51.826;5.692;2022-12-08T01:30:30;15.85;;;12.13;;
41925;SDS011;27615;51.826;5.692;2022-12-08T01:32:56;14.52;;;12.38;;
41925;SDS011;27615;51.826;5.692;2022-12-08T01:35:21;16.90;;;12.50;;
41925;SDS011;27615;51.826;5.692;2022-12-08T01:37:48;16.50;;;12.27;;
41925;SDS011;27615;51.826;5.692;2022-12-08T01:40:14;17.40;;;12.27;;
41925;SDS011;27615;51.826;5.692;2022-12-08T01:42:39;20.52;;;12.02;;
41925;SDS011;27615;51.826;5.692;2022-12-08T01:45:25;16.08;;;11.70;;
41925;SDS011;27615;51.826;5.692;2022-12-08T01:50:23;14.73;;;10.60;;
41925;SDS011;27615;51.826;5.692;2022-12-08T01:52:50;15.52;;;10.10;;
41925;SDS011;27615;51.826;5.692;2022-12-08T01:55:30;13.75;;;10.10;;
41925;SDS011;27615;51.826;5.692;2022-12-08T01:58:05;14.35;;;10.55;;
41925;SDS011;27615;51.826;5.692;2022-12-08T02:00:36;15.15;;;10.13;;
41925;SDS011;27615;51.826;5.692;2022-12-08T02:03:03;16.35;;;9.35;;
41925;SDS011;27615;51.826;5.692;2022-12-08T02:05:32;15.80;;;10.13;;
41925;SDS011;27615;51.826;5.692;2022-12-08T02:08:00;12.27;;;9.30;;
41925;SDS011;27615;51.826;5.692;2022-12-08T02:10:32;11.32;;;8.60;;
41925;SDS011;27615;51.826;5.692;2022-12-08T02:12:59;11.98;;;8.95;;
41925;SDS011;27615;51.826;5.692;2022-12-08T02:15:31;10.95;;;8.27;;
41925;SDS011;27615;51.826;5.692;2022-12-08T02:18:12;12.70;;;9.05;;
41925;SDS011;27615;51.826;5.692;2022-12-08T02:26:33;10.35;;;8.43;;
41925;SDS011;27615;51.826;5.692;2022-12-08T02:32:05;10.45;;;8.07;;
41925;SDS011;27615;51.826;5.692;2022-12-08T02:37:55;9.82;;;7.20;;
41925;SDS011;27615;51.826;5.692;2022-12-08T02:40:35;10.48;;;6.88;;
41925;SDS011;27615;51.826;5.692;2022-12-08T02:43:11;10.60;;;7.93;;
41925;SDS011;27615;51.826;5.692;2022-12-08T02:45:46;11.70;;;7.65;;
41925;SDS011;27615;51.826;5.692;2022-12-08T02:48:15;9.65;;;6.55;;
41925;SDS011;27615;51.826;5.692;2022-12-08T02:50:41;9.07;;;7.18;;
41925;SDS011;27615;51.826;5.692;2022-12-08T02:53:07;8.63;;;6.30;;
41925;SDS011;27615;51.826;5.692;2022-12-08T02:58:46;8.20;;;6.18;;
41925;SDS011;27615;51.826;5.692;2022-12-08T03:01:19;7.10;;;5.97;;
41925;SDS011;27615;51.826;5.692;2022-12-08T03:06:57;6.57;;;5.28;;
41925;SDS011;27615;51.826;5.692;2022-12-08T03:09:37;6.47;;;4.95;;
41925;SDS011;27615;51.826;5.692;2022-12-08T03:12:17;9.25;;;6.03;;
41925;SDS011;27615;51.826;5.692;2022-12-08T03:14:52;6.57;;;5.22;;
41925;SDS011;27615;51.826;5.692;2022-12-08T03:17:20;7.63;;;5.33;;
41925;SDS011;27615;51.826;5.692;2022-12-08T03:19:49;6.50;;;4.70;;
41925;SDS011;27615;51.826;5.692;2022-12-08T03:22:18;5.78;;;4.07;;
41925;SDS011;27615;51.826;5.692;2022-12-08T03:24:48;7.38;;;5.05;;
41925;SDS011;27615;51.826;5.692;2022-12-08T03:27:15;6.40;;;4.18;;
41925;SDS011;27615;51.826;5.692;2022-12-08T03:29:44;6.47;;;4.07;;
41925;SDS011;27615;51.826;5.692;2022-12-08T03:32:18;5.07;;;3.92;;
41925;SDS011;27615;51.826;5.692;2022-12-08T03:35:07;5.88;;;4.25;;
41925;SDS011;27615;51.826;5.692;2022-12-08T03:37:38;5.55;;;4.20;;
41925;SDS011;27615;51.826;5.692;2022-12-08T03:40:06;3.95;;;2.70;;
41925;SDS011;27615;51.826;5.692;2022-12-08T03:42:34;3.40;;;2.50;;
41925;SDS011;27615;51.826;5.692;2022-12-08T03:45:00;4.32;;;2.28;;
41925;SDS011;27615;51.826;5.692;2022-12-08T03:47:25;2.50;;;1.90;;
41925;SDS011;27615;51.826;5.692;2022-12-08T03:49:51;3.15;;;2.00;;
41925;SDS011;27615;51.826;5.692;2022-12-08T03:52:16;3.13;;;1.90;;
41925;SDS011;27615;51.826;5.692;2022-12-08T03:54:42;2.63;;;1.45;;
41925;SDS011;27615;51.826;5.692;2022-12-08T03:57:07;2.92;;;1.70;;
41925;SDS011;27615;51.826;5.692;2022-12-08T03:59:33;1.83;;;1.30;;
41925;SDS011;27615;51.826;5.692;2022-12-08T04:01:58;2.28;;;1.30;;
41925;SDS011;27615;51.826;5.692;2022-12-08T04:04:24;2.72;;;1.52;;
41925;SDS011;27615;51.826;5.692;2022-12-08T04:06:50;2.53;;;1.30;;
41925;SDS011;27615;51.826;5.692;2022-12-08T04:09:15;2.08;;;1.40;;
41925;SDS011;27615;51.826;5.692;2022-12-08T04:11:41;3.63;;;1.80;;
41925;SDS011;27615;51.826;5.692;2022-12-08T04:14:07;3.72;;;1.80;;
41925;SDS011;27615;51.826;5.692;2022-12-08T04:16:32;2.72;;;1.70;;
41925;SDS011;27615;51.826;5.692;2022-12-08T04:18:58;2.55;;;1.75;;
41925;SDS011;27615;51.826;5.692;2022-12-08T04:21:23;3.13;;;1.75;;
41925;SDS011;27615;51.826;5.692;2022-12-08T04:23:49;3.63;;;1.80;;
41925;SDS011;27615;51.826;5.692;2022-12-08T04:26:15;2.08;;;1.60;;
41925;SDS011;27615;51.826;5.692;2022-12-08T04:28:41;2.00;;;1.10;;
41925;SDS011;27615;51.826;5.692;2022-12-08T04:31:06;1.95;;;1.27;;
41925;SDS011;27615;51.826;5.692;2022-12-08T04:33:32;3.90;;;1.55;;
41925;SDS011;27615;51.826;5.692;2022-12-08T04:35:59;1.88;;;0.95;;
41925;SDS011;27615;51.826;5.692;2022-12-08T04:38:25;1.80;;;1.05;;
41925;SDS011;27615;51.826;5.692;2022-12-08T04:40:51;2.08;;;1.50;;
41925;SDS011;27615;51.826;5.692;2022-12-08T04:43:16;3.13;;;1.60;;
41925;SDS011;27615;51.826;5.692;2022-12-08T04:45:42;2.75;;;1.52;;
41925;SDS011;27615;51.826;5.692;2022-12-08T04:48:08;3.33;;;1.40;;
41925;SDS011;27615;51.826;5.692;2022-12-08T04:50:36;1.50;;;1.20;;
41925;SDS011;27615;51.826;5.692;2022-12-08T04:53:04;1.75;;;1.30;;
41925;SDS011;27615;51.826;5.692;2022-12-08T04:55:30;2.42;;;1.20;;
41925;SDS011;27615;51.826;5.692;2022-12-08T04:57:55;3.35;;;0.90;;
41925;SDS011;27615;51.826;5.692;2022-12-08T05:00:21;2.38;;;1.00;;
41925;SDS011;27615;51.826;5.692;2022-12-08T05:02:46;2.65;;;1.00;;
41925;SDS011;27615;51.826;5.692;2022-12-08T05:05:12;1.40;;;0.60;;
41925;SDS011;27615;51.826;5.692;2022-12-08T05:07:37;1.08;;;0.60;;
41925;SDS011;27615;51.826;5.692;2022-12-08T05:10:03;1.05;;;0.52;;
41925;SDS011;27615;51.826;5.692;2022-12-08T05:12:29;1.27;;;0.50;;
41925;SDS011;27615;51.826;5.692;2022-12-08T05:14:55;0.65;;;0.30;;
41925;SDS011;27615;51.826;5.692;2022-12-08T05:17:20;0.50;;;0.40;;
41925;SDS011;27615;51.826;5.692;2022-12-08T05:19:46;0.65;;;0.40;;
41925;SDS011;27615;51.826;5.692;2022-12-08T05:22:11;1.50;;;0.30;;
41925;SDS011;27615;51.826;5.692;2022-12-08T05:24:37;0.60;;;0.30;;
41925;SDS011;27615;51.826;5.692;2022-12-08T05:27:02;0.75;;;0.30;;
41925;SDS011;27615;51.826;5.692;2022-12-08T05:29:28;0.80;;;0.30;;
41925;SDS011;27615;51.826;5.692;2022-12-08T05:31:53;0.57;;;0.20;;
41925;SDS011;27615;51.826;5.692;2022-12-08T05:34:19;1.45;;;0.20;;
41925;SDS011;27615;51.826;5.692;2022-12-08T05:36:45;0.50;;;0.20;;
41925;SDS011;27615;51.826;5.692;2022-12-08T05:39:13;1.20;;;0.20;;
41925;SDS011;27615;51.826;5.692;2022-12-08T05:41:39;2.05;;;0.40;;
41925;SDS011;27615;51.826;5.692;2022-12-08T05:44:05;0.65;;;0.30;;
41925;SDS011;27615;51.826;5.692;2022-12-08T05:46:31;1.00;;;0.40;;
41925;SDS011;27615;51.826;5.692;2022-12-08T05:49:00;2.00;;;0.40;;
41925;SDS011;27615;51.826;5.692;2022-12-08T05:53:53;0.90;;;0.45;;
41925;SDS011;27615;51.826;5.692;2022-12-08T05:56:19;0.60;;;0.50;;
41925;SDS011;27615;51.826;5.692;2022-12-08T05:58:45;0.80;;;0.40;;
41925;SDS011;27615;51.826;5.692;2022-12-08T06:03:47;0.85;;;0.50;;
41925;SDS011;27615;51.826;5.692;2022-12-08T06:06:12;1.23;;;0.90;;
41925;SDS011;27615;51.826;5.692;2022-12-08T06:08:38;0.93;;;0.60;;
41925;SDS011;27615;51.826;5.692;2022-12-08T06:11:03;1.00;;;0.80;;
41925;SDS011;27615;51.826;5.692;2022-12-08T06:13:29;3.42;;;1.00;;
41925;SDS011;27615;51.826;5.692;2022-12-08T06:15:54;3.65;;;1.33;;
41925;SDS011;27615;51.826;5.692;2022-12-08T06:18:20;3.10;;;1.25;;
41925;SDS011;27615;51.826;5.692;2022-12-08T06:20:46;2.15;;;1.17;;
41925;SDS011;27615;51.826;5.692;2022-12-08T06:23:11;2.03;;;1.20;;
41925;SDS011;27615;51.826;5.692;2022-12-08T06:25:37;2.15;;;1.10;;
41925;SDS011;27615;51.826;5.692;2022-12-08T06:28:03;1.85;;;1.02;;
41925;SDS011;27615;51.826;5.692;2022-12-08T06:30:30;2.33;;;1.45;;
41925;SDS011;27615;51.826;5.692;2022-12-08T06:32:56;2.28;;;0.70;;
41925;SDS011;27615;51.826;5.692;2022-12-08T06:35:22;1.77;;;0.60;;
41925;SDS011;27615;51.826;5.692;2022-12-08T06:37:47;1.20;;;0.65;;
41925;SDS011;27615;51.826;5.692;2022-12-08T06:40:13;0.77;;;0.50;;
41925;SDS011;27615;51.826;5.692;2022-12-08T06:42:38;2.67;;;0.60;;
41925;SDS011;27615;51.826;5.692;2022-12-08T06:45:14;2.35;;;0.60;;
41925;SDS011;27615;51.826;5.692;2022-12-08T06:47:41;2.20;;;0.70;;
41925;SDS011;27615;51.826;5.692;2022-12-08T06:50:06;0.85;;;0.60;;
41925;SDS011;27615;51.826;5.692;2022-12-08T06:52:33;0.70;;;0.50;;
41925;SDS011;27615;51.826;5.692;2022-12-08T06:54:59;1.30;;;0.60;;
41925;SDS011;27615;51.826;5.692;2022-12-08T06:57:24;0.77;;;0.52;;
41925;SDS011;27615;51.826;5.692;2022-12-08T06:59:50;1.58;;;0.80;;
41925;SDS011;27615;51.826;5.692;2022-12-08T07:02:15;1.45;;;1.00;;
41925;SDS011;27615;51.826;5.692;2022-12-08T07:04:41;1.92;;;1.02;;
41925;SDS011;27615;51.826;5.692;2022-12-08T07:07:07;2.05;;;1.20;;
41925;SDS011;27615;51.826;5.692;2022-12-08T07:09:33;2.15;;;1.27;;
41925;SDS011;27615;51.826;5.692;2022-12-08T07:11:58;2.15;;;1.30;;
41925;SDS011;27615;51.826;5.692;2022-12-08T07:14:24;2.55;;;1.23;;
41925;SDS011;27615;51.826;5.692;2022-12-08T07:16:50;2.00;;;1.05;;
41925;SDS011;27615;51.826;5.692;2022-12-08T07:19:16;1.45;;;0.88;;
41925;SDS011;27615;51.826;5.692;2022-12-08T07:21:42;1.52;;;1.00;;
41925;SDS011;27615;51.826;5.692;2022-12-08T07:24:07;3.13;;;1.42;;
41925;SDS011;27615;51.826;5.692;2022-12-08T07:26:33;3.45;;;1.13;;
41925;SDS011;27615;51.826;5.692;2022-12-08T07:28:58;1.00;;;0.90;;
41925;SDS011;27615;51.826;5.692;2022-12-08T07:31:24;1.33;;;1.00;;
41925;SDS011;27615;51.826;5.692;2022-12-08T07:33:51;2.10;;;0.93;;
41925;SDS011;27615;51.826;5.692;2022-12-08T07:36:18;0.98;;;0.73;;
41925;SDS011;27615;51.826;5.692;2022-12-08T07:38:43;1.80;;;1.40;;
41925;SDS011;27615;51.826;5.692;2022-12-08T07:41:13;2.13;;;1.38;;
41925;SDS011;27615;51.826;5.692;2022-12-08T07:43:39;3.53;;;1.48;;
41925;SDS011;27615;51.826;5.692;2022-12-08T07:46:05;2.55;;;1.40;;
41925;SDS011;27615;51.826;5.692;2022-12-08T07:48:31;1.92;;;1.35;;
41925;SDS011;27615;51.826;5.692;2022-12-08T07:51:00;2.08;;;1.20;;
41925;SDS011;27615;51.826;5.692;2022-12-08T07:53:27;1.95;;;1.27;;
41925;SDS011;27615;51.826;5.692;2022-12-08T07:55:53;2.08;;;1.20;;
41925;SDS011;27615;51.826;5.692;2022-12-08T07:58:18;2.88;;;1.52;;
41925;SDS011;27615;51.826;5.692;2022-12-08T08:00:44;2.42;;;1.30;;
41925;SDS011;27615;51.826;5.692;2022-12-08T08:03:10;3.00;;;1.23;;
41925;SDS011;27615;51.826;5.692;2022-12-08T08:05:35;1.45;;;1.00;;
41925;SDS011;27615;51.826;5.692;2022-12-08T08:08:01;1.58;;;1.20;;
41925;SDS011;27615;51.826;5.692;2022-12-08T08:10:27;1.70;;;1.13;;
41925;SDS011;27615;51.826;5.692;2022-12-08T08:12:53;2.33;;;1.05;;
41925;SDS011;27615;51.826;5.692;2022-12-08T08:15:18;3.22;;;1.40;;
41925;SDS011;27615;51.826;5.692;2022-12-08T08:17:47;1.60;;;1.23;;
41925;SDS011;27615;51.826;5.692;2022-12-08T08:20:16;2.47;;;1.60;;
41925;SDS011;27615;51.826;5.692;2022-12-08T08:22:44;2.08;;;1.50;;
41925;SDS011;27615;51.826;5.692;2022-12-08T08:25:14;1.40;;;1.20;;
41925;SDS011;27615;51.826;5.692;2022-12-08T08:27:40;1.63;;;1.20;;
41925;SDS011;27615;51.826;5.692;2022-12-08T08:30:06;1.80;;;1.15;;
41925;SDS011;27615;51.826;5.692;2022-12-08T08:32:33;2.45;;;1.40;;
41925;SDS011;27615;51.826;5.692;2022-12-08T08:34:59;1.48;;;1.10;;
41925;SDS011;27615;51.826;5.692;2022-12-08T08:37:25;1.65;;;0.77;;
41925;SDS011;27615;51.826;5.692;2022-12-08T08:39:51;0.88;;;0.73;;
41925;SDS011;27615;51.826;5.692;2022-12-08T08:42:17;1.10;;;0.57;;
41925;SDS011;27615;51.826;5.692;2022-12-08T08:44:43;1.55;;;0.63;;
41925;SDS011;27615;51.826;5.692;2022-12-08T08:47:08;1.35;;;0.70;;
41925;SDS011;27615;51.826;5.692;2022-12-08T08:49:34;1.55;;;0.88;;
41925;SDS011;27615;51.826;5.692;2022-12-08T08:51:59;2.00;;;0.77;;
41925;SDS011;27615;51.826;5.692;2022-12-08T08:54:27;1.10;;;0.60;;
41925;SDS011;27615;51.826;5.692;2022-12-08T08:56:53;1.15;;;0.50;;
41925;SDS011;27615;51.826;5.692;2022-12-08T08:59:18;1.52;;;0.70;;
41925;SDS011;27615;51.826;5.692;2022-12-08T09:01:44;1.38;;;0.50;;
41925;SDS011;27615;51.826;5.692;2022-12-08T09:04:09;2.38;;;0.40;;
41925;SDS011;27615;51.826;5.692;2022-12-08T09:06:35;1.02;;;0.50;;
41925;SDS011;27615;51.826;5.692;2022-12-08T09:09:00;1.00;;;0.45;;
41925;SDS011;27615;51.826;5.692;2022-12-08T09:11:26;1.02;;;0.50;;
41925;SDS011;27615;51.826;5.692;2022-12-08T09:13:52;1.10;;;0.63;;
41925;SDS011;27615;51.826;5.692;2022-12-08T09:16:18;2.20;;;0.60;;
41925;SDS011;27615;51.826;5.692;2022-12-08T09:18:44;1.17;;;0.75;;
41925;SDS011;27615;51.826;5.692;2022-12-08T09:21:11;2.75;;;1.02;;
41925;SDS011;27615;51.826;5.692;2022-12-08T09:26:06;1.75;;;1.02;;
41925;SDS011;27615;51.826;5.692;2022-12-08T09:28:33;1.17;;;1.00;;
41925;SDS011;27615;51.826;5.692;2022-12-08T09:30:59;1.00;;;0.70;;
41925;SDS011;27615;51.826;5.692;2022-12-08T09:33:25;1.45;;;0.75;;
41925;SDS011;27615;51.826;5.692;2022-12-08T09:35:50;1.98;;;0.77;;
41925;SDS011;27615;51.826;5.692;2022-12-08T09:38:16;0.90;;;0.50;;
41925;SDS011;27615;51.826;5.692;2022-12-08T09:40:45;1.45;;;0.70;;
41925;SDS011;27615;51.826;5.692;2022-12-08T09:43:28;0.82;;;0.50;;
41925;SDS011;27615;51.826;5.692;2022-12-08T09:46:15;0.68;;;0.40;;
41925;SDS011;27615;51.826;5.692;2022-12-08T09:49:01;0.60;;;0.50;;
41925;SDS011;27615;51.826;5.692;2022-12-08T09:51:30;0.90;;;0.40;;
41925;SDS011;27615;51.826;5.692;2022-12-08T09:54:03;0.80;;;0.30;;
41925;SDS011;27615;51.826;5.692;2022-12-08T09:56:33;0.85;;;0.45;;
41925;SDS011;27615;51.826;5.692;2022-12-08T09:59:44;0.60;;;0.35;;
41925;SDS011;27615;51.826;5.692;2022-12-08T10:01:53;0.50;;;0.30;;
41925;SDS011;27615;51.826;5.692;2022-12-08T10:04:22;0.68;;;0.50;;
41925;SDS011;27615;51.826;5.692;2022-12-08T10:17:50;1.65;;;0.80;;
41925;SDS011;27615;51.826;5.692;2022-12-08T10:20:19;6.35;;;2.22;;
41925;SDS011;27615;51.826;5.692;2022-12-08T10:23:01;2.25;;;1.48;;
41925;SDS011;27615;51.826;5.692;2022-12-08T10:25:39;2.53;;;1.40;;
41925;SDS011;27615;51.826;5.692;2022-12-08T10:28:13;1.73;;;0.90;;
41925;SDS011;27615;51.826;5.692;2022-12-08T10:30:39;1.90;;;1.27;;
41925;SDS011;27615;51.826;5.692;2022-12-08T10:33:05;2.35;;;1.80;;
41925;SDS011;27615;51.826;5.692;2022-12-08T10:35:43;2.70;;;1.25;;
41925;SDS011;27615;51.826;5.692;2022-12-08T10:38:16;2.20;;;1.52;;
41925;SDS011;27615;51.826;5.692;2022-12-08T10:40:56;2.10;;;1.27;;
41925;SDS011;27615;51.826;5.692;2022-12-08T10:43:27;2.25;;;1.60;;
41925;SDS011;27615;51.826;5.692;2022-12-08T10:45:52;1.77;;;1.50;;
41925;SDS011;27615;51.826;5.692;2022-12-08T10:48:20;1.65;;;1.25;;
41925;SDS011;27615;51.826;5.692;2022-12-08T10:50:56;3.15;;;1.20;;
41925;SDS011;27615;51.826;5.692;2022-12-08T10:53:32;2.22;;;1.23;;
41925;SDS011;27615;51.826;5.692;2022-12-08T10:56:13;2.88;;;1.35;;
41925;SDS011;27615;51.826;5.692;2022-12-08T10:58:40;2.60;;;1.48;;
41925;SDS011;27615;51.826;5.692;2022-12-08T11:01:16;2.72;;;1.60;;
41925;SDS011;27615;51.826;5.692;2022-12-08T11:06:20;1.50;;;1.40;;
41925;SDS011;27615;51.826;5.692;2022-12-08T11:08:55;2.55;;;1.52;;
41925;SDS011;27615;51.826;5.692;2022-12-08T11:11:35;4.32;;;1.80;;
41925;SDS011;27615;51.826;5.692;2022-12-08T11:14:13;4.25;;;1.95;;
41925;SDS011;27615;51.826;5.692;2022-12-08T11:16:46;2.25;;;1.55;;
41925;SDS011;27615;51.826;5.692;2022-12-08T11:19:15;3.05;;;2.22;;
41925;SDS011;27615;51.826;5.692;2022-12-08T11:21:44;2.38;;;1.67;;
41925;SDS011;27615;51.826;5.692;2022-12-08T11:26:59;2.88;;;1.95;;
41925;SDS011;27615;51.826;5.692;2022-12-08T11:31:54;2.58;;;1.73;;
41925;SDS011;27615;51.826;5.692;2022-12-08T11:37:22;2.33;;;1.73;;
41925;SDS011;27615;51.826;5.692;2022-12-08T11:39:49;2.30;;;1.90;;
41925;SDS011;27615;51.826;5.692;2022-12-08T11:42:17;2.28;;;1.70;;
41925;SDS011;27615;51.826;5.692;2022-12-08T11:44:56;2.97;;;1.70;;
41925;SDS011;27615;51.826;5.692;2022-12-08T11:47:30;1.45;;;1.33;;
41925;SDS011;27615;51.826;5.692;2022-12-08T11:50:02;3.10;;;1.45;;
41925;SDS011;27615;51.826;5.692;2022-12-08T11:52:49;3.08;;;1.67;;
41925;SDS011;27615;51.826;5.692;2022-12-08T11:58:41;3.72;;;2.13;;
41925;SDS011;27615;51.826;5.692;2022-12-08T12:01:02;3.47;;;2.70;;
41925;SDS011;27615;51.826;5.692;2022-12-08T12:03:35;2.63;;;2.28;;
41925;SDS011;27615;51.826;5.692;2022-12-08T12:09:02;2.10;;;1.42;;
41925;SDS011;27615;51.826;5.692;2022-12-08T12:17:29;2.42;;;1.35;;
41925;SDS011;27615;51.826;5.692;2022-12-08T12:20:12;4.53;;;1.35;;
41925;SDS011;27615;51.826;5.692;2022-12-08T12:22:39;2.22;;;1.10;;
41925;SDS011;27615;51.826;5.692;2022-12-08T12:25:14;1.80;;;1.20;;
41925;SDS011;27615;51.826;5.692;2022-12-08T12:27:41;1.38;;;0.95;;
41925;SDS011;27615;51.826;5.692;2022-12-08T12:30:17;2.08;;;1.00;;
41925;SDS011;27615;51.826;5.692;2022-12-08T12:32:52;1.55;;;0.80;;
41925;SDS011;27615;51.826;5.692;2022-12-08T12:35:43;1.20;;;0.60;;
41925;SDS011;27615;51.826;5.692;2022-12-08T12:38:12;0.90;;;0.60;;
41925;SDS011;27615;51.826;5.692;2022-12-08T12:41:04;1.88;;;0.70;;
41925;SDS011;27615;51.826;5.692;2022-12-08T12:43:35;0.90;;;0.50;;
41925;SDS011;27615;51.826;5.692;2022-12-08T12:48:46;1.23;;;0.40;;
41925;SDS011;27615;51.826;5.692;2022-12-08T12:59:45;0.93;;;0.30;;
41925;SDS011;27615;51.826;5.692;2022-12-08T13:02:21;0.75;;;0.40;;
41925;SDS011;27615;51.826;5.692;2022-12-08T13:04:58;0.35;;;0.20;;
41925;SDS011;27615;51.826;5.692;2022-12-08T13:07:29;0.73;;;0.22;;
41925;SDS011;27615;51.826;5.692;2022-12-08T13:12:41;1.55;;;0.30;;
41925;SDS011;27615;51.826;5.692;2022-12-08T13:15:14;0.20;;;0.15;;
41925;SDS011;27615;51.826;5.692;2022-12-08T13:17:44;0.65;;;0.20;;
41925;SDS011;27615;51.826;5.692;2022-12-08T13:20:17;0.47;;;0.30;;
41925;SDS011;27615;51.826;5.692;2022-12-08T13:30:44;0.40;;;0.20;;
41925;SDS011;27615;51.826;5.692;2022-12-08T13:33:17;0.90;;;0.40;;
41925;SDS011;27615;51.826;5.692;2022-12-08T13:38:40;1.58;;;0.50;;
41925;SDS011;27615;51.826;5.692;2022-12-08T13:41:12;1.15;;;0.50;;
41925;SDS011;27615;51.826;5.692;2022-12-08T13:44:03;1.17;;;0.50;;
41925;SDS011;27615;51.826;5.692;2022-12-08T13:46:37;1.77;;;0.60;;
41925;SDS011;27615;51.826;5.692;2022-12-08T13:49:07;2.00;;;0.70;;
41925;SDS011;27615;51.826;5.692;2022-12-08T13:51:40;2.05;;;0.85;;
41925;SDS011;27615;51.826;5.692;2022-12-08T13:54:11;1.90;;;0.80;;
41925;SDS011;27615;51.826;5.692;2022-12-08T13:56:41;1.02;;;0.68;;
41925;SDS011;27615;51.826;5.692;2022-12-08T13:59:09;0.70;;;0.70;;
41925;SDS011;27615;51.826;5.692;2022-12-08T14:02:19;1.50;;;0.70;;
41925;SDS011;27615;51.826;5.692;2022-12-08T14:04:45;2.55;;;0.90;;
41925;SDS011;27615;51.826;5.692;2022-12-08T14:07:11;2.67;;;1.10;;
41925;SDS011;27615;51.826;5.692;2022-12-08T14:09:37;2.42;;;0.68;;
41925;SDS011;27615;51.826;5.692;2022-12-08T14:12:05;0.90;;;0.70;;
41925;SDS011;27615;51.826;5.692;2022-12-08T14:14:45;2.35;;;0.80;;
41925;SDS011;27615;51.826;5.692;2022-12-08T14:17:14;1.30;;;0.80;;
41925;SDS011;27615;51.826;5.692;2022-12-08T14:19:42;1.30;;;0.73;;
41925;SDS011;27615;51.826;5.692;2022-12-08T14:22:16;1.77;;;1.02;;
41925;SDS011;27615;51.826;5.692;2022-12-08T14:24:46;2.22;;;1.20;;
41925;SDS011;27615;51.826;5.692;2022-12-08T14:27:15;1.55;;;1.42;;
41925;SDS011;27615;51.826;5.692;2022-12-08T14:29:43;1.50;;;1.08;;
41925;SDS011;27615;51.826;5.692;2022-12-08T14:32:29;1.83;;;1.40;;
41925;SDS011;27615;51.826;5.692;2022-12-08T14:37:34;1.50;;;1.40;;
41925;SDS011;27615;51.826;5.692;2022-12-08T14:40:06;1.67;;;1.58;;
41925;SDS011;27615;51.826;5.692;2022-12-08T14:43:05;1.83;;;1.73;;
41925;SDS011;27615;51.826;5.692;2022-12-08T14:56:14;2.92;;;2.15;;
41925;SDS011;27615;51.826;5.692;2022-12-08T14:58:48;2.20;;;1.77;;
41925;SDS011;27615;51.826;5.692;2022-12-08T15:01:29;3.25;;;1.95;;
41925;SDS011;27615;51.826;5.692;2022-12-08T15:04:06;2.30;;;1.65;;
41925;SDS011;27615;51.826;5.692;2022-12-08T15:06:35;1.92;;;1.60;;
41925;SDS011;27615;51.826;5.692;2022-12-08T15:09:13;1.50;;;1.00;;
41925;SDS011;27615;51.826;5.692;2022-12-08T15:11:40;2.03;;;1.30;;
41925;SDS011;27615;51.826;5.692;2022-12-08T15:16:52;1.77;;;1.48;;
41925;SDS011;27615;51.826;5.692;2022-12-08T15:19:29;1.90;;;1.50;;
41925;SDS011;27615;51.826;5.692;2022-12-08T15:21:58;1.40;;;1.30;;
41925;SDS011;27615;51.826;5.692;2022-12-08T15:24:37;1.92;;;1.45;;
41925;SDS011;27615;51.826;5.692;2022-12-08T15:27:02;1.50;;;1.40;;
41925;SDS011;27615;51.826;5.692;2022-12-08T15:29:28;1.75;;;1.52;;
41925;SDS011;27615;51.826;5.692;2022-12-08T15:31:55;1.65;;;1.38;;
41925;SDS011;27615;51.826;5.692;2022-12-08T15:34:23;1.88;;;1.30;;
41925;SDS011;27615;51.826;5.692;2022-12-08T15:36:49;1.95;;;1.58;;
41925;SDS011;27615;51.826;5.692;2022-12-08T15:39:24;1.60;;;1.50;;
41925;SDS011;27615;51.826;5.692;2022-12-08T15:41:56;2.42;;;2.22;;
41925;SDS011;27615;51.826;5.692;2022-12-08T15:44:22;3.80;;;2.72;;
41925;SDS011;27615;51.826;5.692;2022-12-08T15:46:48;5.28;;;3.63;;
41925;SDS011;27615;51.826;5.692;2022-12-08T15:49:21;2.88;;;2.58;;
41925;SDS011;27615;51.826;5.692;2022-12-08T15:51:47;2.67;;;2.40;;
41925;SDS011;27615;51.826;5.692;2022-12-08T15:54:14;2.63;;;2.05;;
41925;SDS011;27615;51.826;5.692;2022-12-08T15:56:42;2.58;;;2.15;;
41925;SDS011;27615;51.826;5.692;2022-12-08T15:59:16;2.45;;;2.10;;
41925;SDS011;27615;51.826;5.692;2022-12-08T16:01:43;2.25;;;1.77;;
41925;SDS011;27615;51.826;5.692;2022-12-08T16:04:11;3.50;;;2.70;;
41925;SDS011;27615;51.826;5.692;2022-12-08T16:06:39;3.63;;;3.05;;
41925;SDS011;27615;51.826;5.692;2022-12-08T16:09:10;3.88;;;3.33;;
41925;SDS011;27615;51.826;5.692;2022-12-08T16:11:44;7.07;;;2.90;;
41925;SDS011;27615;51.826;5.692;2022-12-08T16:14:28;4.68;;;3.08;;
41925;SDS011;27615;51.826;5.692;2022-12-08T16:16:53;4.90;;;3.10;;
41925;SDS011;27615;51.826;5.692;2022-12-08T16:19:19;5.10;;;3.30;;
41925;SDS011;27615;51.826;5.692;2022-12-08T16:21:44;4.45;;;2.88;;
41925;SDS011;27615;51.826;5.692;2022-12-08T16:24:10;4.18;;;3.40;;
41925;SDS011;27615;51.826;5.692;2022-12-08T16:26:35;6.63;;;4.72;;
41925;SDS011;27615;51.826;5.692;2022-12-08T16:29:01;6.85;;;5.88;;
41925;SDS011;27615;51.826;5.692;2022-12-08T16:31:28;8.77;;;7.03;;
41925;SDS011;27615;51.826;5.692;2022-12-08T16:33:53;10.52;;;7.72;;
41925;SDS011;27615;51.826;5.692;2022-12-08T16:36:19;11.40;;;8.85;;
41925;SDS011;27615;51.826;5.692;2022-12-08T16:38:44;10.77;;;8.23;;
41925;SDS011;27615;51.826;5.692;2022-12-08T16:41:13;8.23;;;7.30;;
41925;SDS011;27615;51.826;5.692;2022-12-08T16:44:00;10.38;;;8.23;;